sensor_id;sensor_type;location;lat;lon;timestamp;temperature;humidity
20750;DHT22;10535;50.664;4.564;2023-07-13T00:02:07;16.10;99.90
20750;DHT22;10535;50.664;4.564;2023-07-13T00:05:32;16.00;99.90
20750;DHT22;10535;50.664;4.564;2023-07-13T00:08:33;15.90;99.90
20750;DHT22;10535;50.664;4.564;2023-07-13T00:11:20;15.90;99.90
20750;DHT22;10535;50.664;4.564;2023-07-13T00:13:54;15.90;99.90
20750;DHT22;10535;50.664;4.564;2023-07-13T00:17:06;15.80;99.90
20750;DHT22;10535;50.664;4.564;2023-07-13T00:20:37;15.70;99.90
20750;DHT22;10535;50.664;4.564;2023-07-13T00:23:58;15.80;99.90
20750;DHT22;10535;50.664;4.564;2023-07-13T00:26:59;15.70;99.90
20750;DHT22;10535;50.664;4.564;2023-07-13T00:29:44;15.60;99.90
20750;DHT22;10535;50.664;4.564;2023-07-13T00:32:13;15.70;99.90
20750;DHT22;10535;50.664;4.564;2023-07-13T00:37:30;15.70;99.90
20750;DHT22;10535;50.664;4.564;2023-07-13T00:40:53;15.70;99.90
20750;DHT22;10535;50.664;4.564;2023-07-13T00:43:21;15.70;99.90
20750;DHT22;10535;50.664;4.564;2023-07-13T00:48:38;15.60;99.90
20750;DHT22;10535;50.664;4.564;2023-07-13T00:51:28;15.50;99.90
20750;DHT22;10535;50.664;4.564;2023-07-13T00:54:17;15.50;99.90
20750;DHT22;10535;50.664;4.564;2023-07-13T00:57:19;15.50;99.90
20750;DHT22;10535;50.664;4.564;2023-07-13T01:00:19;15.40;99.90
20750;DHT22;10535;50.664;4.564;2023-07-13T01:03:27;15.40;99.90
20750;DHT22;10535;50.664;4.564;2023-07-13T01:07:05;15.40;99.90
20750;DHT22;10535;50.664;4.564;2023-07-13T01:09:59;15.40;99.90
20750;DHT22;10535;50.664;4.564;2023-07-13T01:12:54;15.30;99.90
20750;DHT22;10535;50.664;4.564;2023-07-13T01:15:48;15.40;99.90
20750;DHT22;10535;50.664;4.564;2023-07-13T01:18:35;15.40;99.90
20750;DHT22;10535;50.664;4.564;2023-07-13T01:22:16;15.30;99.90
20750;DHT22;10535;50.664;4.564;2023-07-13T01:25:24;15.20;99.90
20750;DHT22;10535;50.664;4.564;2023-07-13T01:28:29;15.30;99.90
20750;DHT22;10535;50.664;4.564;2023-07-13T01:31:15;15.20;99.90
20750;DHT22;10535;50.664;4.564;2023-07-13T01:34:10;15.20;99.90
20750;DHT22;10535;50.664;4.564;2023-07-13T01:37:15;15.10;99.90
20750;DHT22;10535;50.664;4.564;2023-07-13T01:40:12;15.10;99.90
20750;DHT22;10535;50.664;4.564;2023-07-13T01:42:52;15.00;99.90
20750;DHT22;10535;50.664;4.564;2023-07-13T01:45:33;15.10;99.90
20750;DHT22;10535;50.664;4.564;2023-07-13T01:48:15;15.10;99.90
20750;DHT22;10535;50.664;4.564;2023-07-13T01:50:55;15.10;99.90
20750;DHT22;10535;50.664;4.564;2023-07-13T01:53:20;15.10;99.90
20750;DHT22;10535;50.664;4.564;2023-07-13T01:55:56;15.10;99.90
20750;DHT22;10535;50.664;4.564;2023-07-13T01:58:52;15.10;99.90
20750;DHT22;10535;50.664;4.564;2023-07-13T02:01:53;15.10;99.90
20750;DHT22;10535;50.664;4.564;2023-07-13T02:04:39;15.10;99.90
20750;DHT22;10535;50.664;4.564;2023-07-13T02:07:19;15.00;99.90
20750;DHT22;10535;50.664;4.564;2023-07-13T02:10:00;15.00;99.90
20750;DHT22;10535;50.664;4.564;2023-07-13T02:13:07;15.10;99.90
20750;DHT22;10535;50.664;4.564;2023-07-13T02:15:54;15.00;99.90
20750;DHT22;10535;50.664;4.564;2023-07-13T02:18:42;14.90;99.90
20750;DHT22;10535;50.664;4.564;2023-07-13T02:21:11;14.90;99.90
20750;DHT22;10535;50.664;4.564;2023-07-13T02:23:53;14.90;99.90
20750;DHT22;10535;50.664;4.564;2023-07-13T02:26:35;14.80;99.90
20750;DHT22;10535;50.664;4.564;2023-07-13T02:29:22;14.80;99.90
20750;DHT22;10535;50.664;4.564;2023-07-13T02:32:35;14.70;99.90
20750;DHT22;10535;50.664;4.564;2023-07-13T02:35:18;14.80;99.90
20750;DHT22;10535;50.664;4.564;2023-07-13T02:37:47;14.80;99.90
20750;DHT22;10535;50.664;4.564;2023-07-13T02:40:24;14.80;99.90
20750;DHT22;10535;50.664;4.564;2023-07-13T02:42:49;14.80;99.90
20750;DHT22;10535;50.664;4.564;2023-07-13T02:45:46;14.80;99.90
20750;DHT22;10535;50.664;4.564;2023-07-13T02:48:36;14.80;99.90
20750;DHT22;10535;50.664;4.564;2023-07-13T02:51:32;14.70;99.90
20750;DHT22;10535;50.664;4.564;2023-07-13T02:54:30;14.70;99.90
20750;DHT22;10535;50.664;4.564;2023-07-13T02:57:27;14.70;99.90
20750;DHT22;10535;50.664;4.564;2023-07-13T03:00:23;14.70;99.90
20750;DHT22;10535;50.664;4.564;2023-07-13T03:03:15;14.70;99.90
20750;DHT22;10535;50.664;4.564;2023-07-13T03:06:39;14.60;99.90
20750;DHT22;10535;50.664;4.564;2023-07-13T03:09:37;14.60;99.90
20750;DHT22;10535;50.664;4.564;2023-07-13T03:12:18;14.70;99.90
20750;DHT22;10535;50.664;4.564;2023-07-13T03:15:10;14.60;99.90
20750;DHT22;10535;50.664;4.564;2023-07-13T03:17:56;14.60;99.90
20750;DHT22;10535;50.664;4.564;2023-07-13T03:20:21;14.60;99.90
20750;DHT22;10535;50.664;4.564;2023-07-13T03:23:08;14.60;99.90
20750;DHT22;10535;50.664;4.564;2023-07-13T03:25:41;14.70;99.90
20750;DHT22;10535;50.664;4.564;2023-07-13T03:29:07;14.70;99.90
20750;DHT22;10535;50.664;4.564;2023-07-13T03:31:55;14.70;99.90
20750;DHT22;10535;50.664;4.564;2023-07-13T03:34:23;14.60;99.90
20750;DHT22;10535;50.664;4.564;2023-07-13T03:37:08;14.70;99.90
20750;DHT22;10535;50.664;4.564;2023-07-13T03:40:17;14.50;99.90
20750;DHT22;10535;50.664;4.564;2023-07-13T03:43:27;14.60;99.90
20750;DHT22;10535;50.664;4.564;2023-07-13T03:46:34;14.70;99.90
20750;DHT22;10535;50.664;4.564;2023-07-13T03:49:22;14.70;99.90
20750;DHT22;10535;50.664;4.564;2023-07-13T03:51:48;14.80;99.90
20750;DHT22;10535;50.664;4.564;2023-07-13T03:54:34;14.90;99.90
20750;DHT22;10535;50.664;4.564;2023-07-13T03:57:22;14.90;99.90
20750;DHT22;10535;50.664;4.564;2023-07-13T04:00:37;15.00;99.90
20750;DHT22;10535;50.664;4.564;2023-07-13T04:04:05;15.00;99.90
20750;DHT22;10535;50.664;4.564;2023-07-13T04:06:53;15.30;99.90
20750;DHT22;10535;50.664;4.564;2023-07-13T04:09:40;15.30;99.90
20750;DHT22;10535;50.664;4.564;2023-07-13T04:15:13;15.50;99.90
20750;DHT22;10535;50.664;4.564;2023-07-13T04:17:41;15.60;99.90
20750;DHT22;10535;50.664;4.564;2023-07-13T04:20:50;15.70;99.90
20750;DHT22;10535;50.664;4.564;2023-07-13T04:23:53;15.60;99.90
20750;DHT22;10535;50.664;4.564;2023-07-13T04:26:58;15.70;99.90
20750;DHT22;10535;50.664;4.564;2023-07-13T04:30:22;15.80;99.90
20750;DHT22;10535;50.664;4.564;2023-07-13T04:33:08;15.80;99.90
20750;DHT22;10535;50.664;4.564;2023-07-13T04:36:14;16.00;99.90
20750;DHT22;10535;50.664;4.564;2023-07-13T04:38:56;15.80;99.90
20750;DHT22;10535;50.664;4.564;2023-07-13T04:41:53;15.80;99.90
20750;DHT22;10535;50.664;4.564;2023-07-13T04:44:21;15.90;99.90
20750;DHT22;10535;50.664;4.564;2023-07-13T04:47:32;15.90;99.90
20750;DHT22;10535;50.664;4.564;2023-07-13T04:50:22;16.10;99.90
20750;DHT22;10535;50.664;4.564;2023-07-13T04:52:52;16.20;99.90
20750;DHT22;10535;50.664;4.564;2023-07-13T04:56:00;16.50;99.90
20750;DHT22;10535;50.664;4.564;2023-07-13T04:59:12;16.40;99.90
20750;DHT22;10535;50.664;4.564;2023-07-13T05:02:26;16.50;99.90
20750;DHT22;10535;50.664;4.564;2023-07-13T05:05:15;16.70;99.90
20750;DHT22;10535;50.664;4.564;2023-07-13T05:08:07;16.70;99.90
20750;DHT22;10535;50.664;4.564;2023-07-13T05:10:54;16.80;99.90
20750;DHT22;10535;50.664;4.564;2023-07-13T05:13:20;16.90;99.90
20750;DHT22;10535;50.664;4.564;2023-07-13T05:16:19;16.90;99.90
20750;DHT22;10535;50.664;4.564;2023-07-13T05:18:47;17.10;99.90
20750;DHT22;10535;50.664;4.564;2023-07-13T05:21:34;17.20;99.90
20750;DHT22;10535;50.664;4.564;2023-07-13T05:24:20;17.20;99.90
20750;DHT22;10535;50.664;4.564;2023-07-13T05:27:33;17.20;99.90
20750;DHT22;10535;50.664;4.564;2023-07-13T05:30:49;17.20;99.90
20750;DHT22;10535;50.664;4.564;2023-07-13T05:33:15;17.20;99.90
20750;DHT22;10535;50.664;4.564;2023-07-13T05:36:25;17.00;99.90
20750;DHT22;10535;50.664;4.564;2023-07-13T05:39:14;17.10;99.90
20750;DHT22;10535;50.664;4.564;2023-07-13T05:42:06;17.40;99.90
20750;DHT22;10535;50.664;4.564;2023-07-13T05:44:40;17.50;99.90
20750;DHT22;10535;50.664;4.564;2023-07-13T05:47:20;17.70;99.90
20750;DHT22;10535;50.664;4.564;2023-07-13T05:50:47;17.80;99.90
20750;DHT22;10535;50.664;4.564;2023-07-13T05:53:52;18.00;99.90
20750;DHT22;10535;50.664;4.564;2023-07-13T05:56:18;18.30;99.90
20750;DHT22;10535;50.664;4.564;2023-07-13T05:59:31;18.40;99.90
20750;DHT22;10535;50.664;4.564;2023-07-13T06:02:25;18.50;99.90
20750;DHT22;10535;50.664;4.564;2023-07-13T06:04:52;18.70;99.90
20750;DHT22;10535;50.664;4.564;2023-07-13T06:07:20;18.90;99.90
20750;DHT22;10535;50.664;4.564;2023-07-13T06:10:44;19.00;99.90
20750;DHT22;10535;50.664;4.564;2023-07-13T06:13:35;19.10;99.90
20750;DHT22;10535;50.664;4.564;2023-07-13T06:16:18;19.10;99.90
20750;DHT22;10535;50.664;4.564;2023-07-13T06:19:14;19.10;99.90
20750;DHT22;10535;50.664;4.564;2023-07-13T06:21:47;19.10;99.90
20750;DHT22;10535;50.664;4.564;2023-07-13T06:24:59;19.30;99.90
20750;DHT22;10535;50.664;4.564;2023-07-13T06:27:54;19.30;99.90
20750;DHT22;10535;50.664;4.564;2023-07-13T06:30:40;19.40;99.90
20750;DHT22;10535;50.664;4.564;2023-07-13T06:33:29;19.70;99.90
20750;DHT22;10535;50.664;4.564;2023-07-13T06:35:58;19.60;99.90
20750;DHT22;10535;50.664;4.564;2023-07-13T06:39:23;19.70;99.90
20750;DHT22;10535;50.664;4.564;2023-07-13T06:41:51;19.70;99.90
20750;DHT22;10535;50.664;4.564;2023-07-13T06:44:16;20.00;99.90
20750;DHT22;10535;50.664;4.564;2023-07-13T06:46:42;20.20;99.90
20750;DHT22;10535;50.664;4.564;2023-07-13T06:49:16;20.30;99.90
20750;DHT22;10535;50.664;4.564;2023-07-13T06:51:42;20.60;99.90
20750;DHT22;10535;50.664;4.564;2023-07-13T06:54:29;20.90;99.90
20750;DHT22;10535;50.664;4.564;2023-07-13T06:57:44;21.10;99.90
20750;DHT22;10535;50.664;4.564;2023-07-13T07:00:58;21.00;99.90
20750;DHT22;10535;50.664;4.564;2023-07-13T07:03:43;21.00;99.90
20750;DHT22;10535;50.664;4.564;2023-07-13T07:06:15;20.90;99.90
20750;DHT22;10535;50.664;4.564;2023-07-13T07:08:41;20.90;99.90
20750;DHT22;10535;50.664;4.564;2023-07-13T07:11:19;21.10;99.90
20750;DHT22;10535;50.664;4.564;2023-07-13T07:13:45;20.90;99.90
20750;DHT22;10535;50.664;4.564;2023-07-13T07:19:05;20.50;99.90
20750;DHT22;10535;50.664;4.564;2023-07-13T07:21:31;20.50;99.90
20750;DHT22;10535;50.664;4.564;2023-07-13T07:23:57;20.60;99.90
20750;DHT22;10535;50.664;4.564;2023-07-13T07:26:29;20.70;99.90
20750;DHT22;10535;50.664;4.564;2023-07-13T07:28:55;20.70;99.90
20750;DHT22;10535;50.664;4.564;2023-07-13T07:31:53;20.80;99.90
20750;DHT22;10535;50.664;4.564;2023-07-13T07:34:39;20.80;99.90
20750;DHT22;10535;50.664;4.564;2023-07-13T07:37:25;20.90;99.90
20750;DHT22;10535;50.664;4.564;2023-07-13T07:39:50;21.10;99.90
20750;DHT22;10535;50.664;4.564;2023-07-13T07:42:39;21.50;99.90
20750;DHT22;10535;50.664;4.564;2023-07-13T07:45:33;21.60;99.90
20750;DHT22;10535;50.664;4.564;2023-07-13T07:48:20;21.80;99.90
20750;DHT22;10535;50.664;4.564;2023-07-13T07:50:58;21.60;99.90
20750;DHT22;10535;50.664;4.564;2023-07-13T07:53:27;21.80;99.90
20750;DHT22;10535;50.664;4.564;2023-07-13T07:55:54;21.70;99.90
20750;DHT22;10535;50.664;4.564;2023-07-13T07:58:35;22.20;99.90
20750;DHT22;10535;50.664;4.564;2023-07-13T08:01:33;22.10;99.90
20750;DHT22;10535;50.664;4.564;2023-07-13T08:04:19;22.10;99.90
20750;DHT22;10535;50.664;4.564;2023-07-13T08:09:13;22.10;99.90
20750;DHT22;10535;50.664;4.564;2023-07-13T08:12:12;22.40;99.90
20750;DHT22;10535;50.664;4.564;2023-07-13T08:15:10;22.80;99.90
20750;DHT22;10535;50.664;4.564;2023-07-13T08:18:12;22.80;99.90
20750;DHT22;10535;50.664;4.564;2023-07-13T08:20:40;22.30;99.90
20750;DHT22;10535;50.664;4.564;2023-07-13T08:24:14;22.10;99.90
20750;DHT22;10535;50.664;4.564;2023-07-13T08:27:13;22.10;99.90
20750;DHT22;10535;50.664;4.564;2023-07-13T08:30:36;22.20;99.90
20750;DHT22;10535;50.664;4.564;2023-07-13T08:34:07;22.00;99.90
20750;DHT22;10535;50.664;4.564;2023-07-13T08:37:05;22.50;99.90
20750;DHT22;10535;50.664;4.564;2023-07-13T08:40:14;22.50;99.90
20750;DHT22;10535;50.664;4.564;2023-07-13T08:43:13;22.90;99.90
20750;DHT22;10535;50.664;4.564;2023-07-13T08:46:14;23.20;99.90
20750;DHT22;10535;50.664;4.564;2023-07-13T08:49:19;23.10;99.90
20750;DHT22;10535;50.664;4.564;2023-07-13T08:52:24;22.90;99.90
20750;DHT22;10535;50.664;4.564;2023-07-13T08:55:46;22.70;99.90
20750;DHT22;10535;50.664;4.564;2023-07-13T08:58:40;22.50;99.90
20750;DHT22;10535;50.664;4.564;2023-07-13T09:01:58;22.60;99.90
20750;DHT22;10535;50.664;4.564;2023-07-13T09:05:10;22.90;99.90
20750;DHT22;10535;50.664;4.564;2023-07-13T09:08:17;22.90;99.90
20750;DHT22;10535;50.664;4.564;2023-07-13T09:17:49;22.60;99.90
20750;DHT22;10535;50.664;4.564;2023-07-13T09:20:55;23.10;99.90
20750;DHT22;10535;50.664;4.564;2023-07-13T09:27:38;22.80;99.90
20750;DHT22;10535;50.664;4.564;2023-07-13T09:33:42;23.10;99.90
20750;DHT22;10535;50.664;4.564;2023-07-13T09:39:48;23.50;99.90
20750;DHT22;10535;50.664;4.564;2023-07-13T09:43:01;23.80;99.90
20750;DHT22;10535;50.664;4.564;2023-07-13T09:45:49;23.80;99.90
20750;DHT22;10535;50.664;4.564;2023-07-13T09:48:59;23.70;99.90
20750;DHT22;10535;50.664;4.564;2023-07-13T09:52:00;23.40;99.90
20750;DHT22;10535;50.664;4.564;2023-07-13T09:55:43;23.10;99.90
20750;DHT22;10535;50.664;4.564;2023-07-13T09:59:33;23.00;99.90
20750;DHT22;10535;50.664;4.564;2023-07-13T10:02:45;22.50;99.90
20750;DHT22;10535;50.664;4.564;2023-07-13T10:06:13;22.80;99.90
20750;DHT22;10535;50.664;4.564;2023-07-13T10:09:21;23.10;99.90
20750;DHT22;10535;50.664;4.564;2023-07-13T10:12:14;23.30;99.90
20750;DHT22;10535;50.664;4.564;2023-07-13T10:15:19;23.50;99.90
20750;DHT22;10535;50.664;4.564;2023-07-13T10:18:49;23.40;99.90
20750;DHT22;10535;50.664;4.564;2023-07-13T10:22:00;23.60;99.90
20750;DHT22;10535;50.664;4.564;2023-07-13T10:25:25;24.10;99.90
20750;DHT22;10535;50.664;4.564;2023-07-13T10:28:56;24.00;99.90
20750;DHT22;10535;50.664;4.564;2023-07-13T10:32:32;23.50;99.90
20750;DHT22;10535;50.664;4.564;2023-07-13T10:35:45;23.50;99.90
20750;DHT22;10535;50.664;4.564;2023-07-13T10:38:50;23.30;99.90
20750;DHT22;10535;50.664;4.564;2023-07-13T10:41:35;23.30;99.90
20750;DHT22;10535;50.664;4.564;2023-07-13T10:44:48;23.50;99.90
20750;DHT22;10535;50.664;4.564;2023-07-13T10:51:03;24.00;99.90
20750;DHT22;10535;50.664;4.564;2023-07-13T10:54:36;24.10;99.90
20750;DHT22;10535;50.664;4.564;2023-07-13T10:58:18;23.90;99.90
20750;DHT22;10535;50.664;4.564;2023-07-13T11:04:11;23.30;99.90
20750;DHT22;10535;50.664;4.564;2023-07-13T11:09:37;23.80;99.90
20750;DHT22;10535;50.664;4.564;2023-07-13T11:12:54;24.10;99.90
20750;DHT22;10535;50.664;4.564;2023-07-13T11:15:53;24.20;99.90
20750;DHT22;10535;50.664;4.564;2023-07-13T11:22:12;24.80;99.90
20750;DHT22;10535;50.664;4.564;2023-07-13T11:25:33;25.00;99.90
20750;DHT22;10535;50.664;4.564;2023-07-13T11:28:35;24.70;99.90
20750;DHT22;10535;50.664;4.564;2023-07-13T11:31:51;24.70;99.90
20750;DHT22;10535;50.664;4.564;2023-07-13T11:35:15;24.00;99.90
20750;DHT22;10535;50.664;4.564;2023-07-13T11:38:20;23.90;99.90
20750;DHT22;10535;50.664;4.564;2023-07-13T11:41:15;24.20;99.90
20750;DHT22;10535;50.664;4.564;2023-07-13T11:44:13;24.30;99.90
20750;DHT22;10535;50.664;4.564;2023-07-13T11:50:05;24.20;99.90
20750;DHT22;10535;50.664;4.564;2023-07-13T11:53:14;24.10;99.90
20750;DHT22;10535;50.664;4.564;2023-07-13T11:56:00;24.20;99.90
20750;DHT22;10535;50.664;4.564;2023-07-13T11:59:22;24.50;99.90
20750;DHT22;10535;50.664;4.564;2023-07-13T12:02:16;24.60;99.90
20750;DHT22;10535;50.664;4.564;2023-07-13T12:05:33;24.70;99.90
20750;DHT22;10535;50.664;4.564;2023-07-13T12:08:25;24.70;99.90
20750;DHT22;10535;50.664;4.564;2023-07-13T12:11:19;24.60;99.90
20750;DHT22;10535;50.664;4.564;2023-07-13T12:14:36;25.10;99.90
20750;DHT22;10535;50.664;4.564;2023-07-13T12:18:14;25.80;99.90
20750;DHT22;10535;50.664;4.564;2023-07-13T12:21:17;26.30;99.90
20750;DHT22;10535;50.664;4.564;2023-07-13T12:24:21;26.60;99.90
20750;DHT22;10535;50.664;4.564;2023-07-13T12:27:41;26.50;99.90
20750;DHT22;10535;50.664;4.564;2023-07-13T12:30:52;26.60;99.90
20750;DHT22;10535;50.664;4.564;2023-07-13T12:34:19;26.60;99.90
20750;DHT22;10535;50.664;4.564;2023-07-13T12:37:10;26.40;99.90
20750;DHT22;10535;50.664;4.564;2023-07-13T12:40:26;26.70;99.90
20750;DHT22;10535;50.664;4.564;2023-07-13T12:43:49;27.10;99.90
20750;DHT22;10535;50.664;4.564;2023-07-13T12:46:50;26.40;99.90
20750;DHT22;10535;50.664;4.564;2023-07-13T12:49:35;26.20;99.90
20750;DHT22;10535;50.664;4.564;2023-07-13T12:52:42;26.20;99.90
20750;DHT22;10535;50.664;4.564;2023-07-13T12:56:16;26.00;99.90
20750;DHT22;10535;50.664;4.564;2023-07-13T12:59:29;25.20;99.90
20750;DHT22;10535;50.664;4.564;2023-07-13T13:02:29;25.10;99.90
20750;DHT22;10535;50.664;4.564;2023-07-13T13:05:35;25.30;99.90
20750;DHT22;10535;50.664;4.564;2023-07-13T13:09:13;25.60;99.90
20750;DHT22;10535;50.664;4.564;2023-07-13T13:12:00;25.60;99.90
20750;DHT22;10535;50.664;4.564;2023-07-13T13:14:56;26.00;99.90
20750;DHT22;10535;50.664;4.564;2023-07-13T13:18:00;26.30;99.90
20750;DHT22;10535;50.664;4.564;2023-07-13T13:21:04;26.10;99.90
20750;DHT22;10535;50.664;4.564;2023-07-13T13:23:55;25.80;99.90
20750;DHT22;10535;50.664;4.564;2023-07-13T13:26:35;25.60;99.90
20750;DHT22;10535;50.664;4.564;2023-07-13T13:29:36;25.60;99.90
20750;DHT22;10535;50.664;4.564;2023-07-13T13:32:54;25.10;99.90
20750;DHT22;10535;50.664;4.564;2023-07-13T13:35:40;24.60;99.90
20750;DHT22;10535;50.664;4.564;2023-07-13T13:38:53;24.80;99.90
20750;DHT22;10535;50.664;4.564;2023-07-13T13:41:26;25.20;99.90
20750;DHT22;10535;50.664;4.564;2023-07-13T13:44:01;25.20;99.90
20750;DHT22;10535;50.664;4.564;2023-07-13T13:46:59;25.00;99.90
20750;DHT22;10535;50.664;4.564;2023-07-13T13:50:19;24.70;99.90
20750;DHT22;10535;50.664;4.564;2023-07-13T13:53:29;24.80;99.90
20750;DHT22;10535;50.664;4.564;2023-07-13T13:56:06;25.10;99.90
20750;DHT22;10535;50.664;4.564;2023-07-13T13:59:05;25.30;99.90
20750;DHT22;10535;50.664;4.564;2023-07-13T14:02:22;25.80;99.90
20750;DHT22;10535;50.664;4.564;2023-07-13T14:05:33;25.50;99.90
20750;DHT22;10535;50.664;4.564;2023-07-13T14:08:43;25.00;99.90
20750;DHT22;10535;50.664;4.564;2023-07-13T14:11:51;24.90;99.90
20750;DHT22;10535;50.664;4.564;2023-07-13T14:14:43;25.40;99.90
20750;DHT22;10535;50.664;4.564;2023-07-13T14:17:36;26.10;99.90
20750;DHT22;10535;50.664;4.564;2023-07-13T14:21:12;26.10;99.90
20750;DHT22;10535;50.664;4.564;2023-07-13T14:24:18;25.80;99.90
20750;DHT22;10535;50.664;4.564;2023-07-13T14:27:08;25.70;99.90
20750;DHT22;10535;50.664;4.564;2023-07-13T14:30:29;25.90;99.90
20750;DHT22;10535;50.664;4.564;2023-07-13T14:33:41;25.90;99.90
20750;DHT22;10535;50.664;4.564;2023-07-13T14:39:45;25.50;99.90
20750;DHT22;10535;50.664;4.564;2023-07-13T14:42:30;25.10;99.90
20750;DHT22;10535;50.664;4.564;2023-07-13T14:45:34;25.10;99.90
20750;DHT22;10535;50.664;4.564;2023-07-13T14:48:59;25.10;99.90
20750;DHT22;10535;50.664;4.564;2023-07-13T14:52:17;25.20;99.90
20750;DHT22;10535;50.664;4.564;2023-07-13T14:55:43;24.90;99.90
20750;DHT22;10535;50.664;4.564;2023-07-13T14:58:35;24.90;99.90
20750;DHT22;10535;50.664;4.564;2023-07-13T15:01:19;25.10;99.90
20750;DHT22;10535;50.664;4.564;2023-07-13T15:04:24;25.30;99.90
20750;DHT22;10535;50.664;4.564;2023-07-13T15:07:16;25.50;99.90
20750;DHT22;10535;50.664;4.564;2023-07-13T15:10:49;25.90;99.90
20750;DHT22;10535;50.664;4.564;2023-07-13T15:13:58;26.10;99.90
20750;DHT22;10535;50.664;4.564;2023-07-13T15:16:46;25.70;99.90
20750;DHT22;10535;50.664;4.564;2023-07-13T15:19:54;25.60;99.90
20750;DHT22;10535;50.664;4.564;2023-07-13T15:22:55;25.60;99.90
20750;DHT22;10535;50.664;4.564;2023-07-13T15:25:48;25.50;99.90
20750;DHT22;10535;50.664;4.564;2023-07-13T15:29:00;25.50;99.90
20750;DHT22;10535;50.664;4.564;2023-07-13T15:32:32;25.50;99.90
20750;DHT22;10535;50.664;4.564;2023-07-13T15:34:58;25.40;99.90
20750;DHT22;10535;50.664;4.564;2023-07-13T15:37:49;25.60;99.90
20750;DHT22;10535;50.664;4.564;2023-07-13T15:40:54;25.50;99.90
20750;DHT22;10535;50.664;4.564;2023-07-13T15:43:54;24.80;99.90
20750;DHT22;10535;50.664;4.564;2023-07-13T15:49:34;24.20;99.90
20750;DHT22;10535;50.664;4.564;2023-07-13T15:52:21;24.20;99.90
20750;DHT22;10535;50.664;4.564;2023-07-13T15:55:41;24.10;99.90
20750;DHT22;10535;50.664;4.564;2023-07-13T15:59:00;23.90;99.90
20750;DHT22;10535;50.664;4.564;2023-07-13T16:12:35;24.00;99.90
20750;DHT22;10535;50.664;4.564;2023-07-13T16:15:35;24.30;99.90
20750;DHT22;10535;50.664;4.564;2023-07-13T16:18:30;24.40;99.90
20750;DHT22;10535;50.664;4.564;2023-07-13T16:21:01;24.20;99.90
20750;DHT22;10535;50.664;4.564;2023-07-13T16:23:26;24.30;99.90
20750;DHT22;10535;50.664;4.564;2023-07-13T16:25:52;24.00;99.90
20750;DHT22;10535;50.664;4.564;2023-07-13T16:28:22;23.90;99.90
20750;DHT22;10535;50.664;4.564;2023-07-13T16:30:53;23.60;99.90
20750;DHT22;10535;50.664;4.564;2023-07-13T16:33:22;23.50;99.90
20750;DHT22;10535;50.664;4.564;2023-07-13T16:36:01;23.30;99.90
20750;DHT22;10535;50.664;4.564;2023-07-13T16:38:31;23.30;99.90
20750;DHT22;10535;50.664;4.564;2023-07-13T16:40:57;23.50;99.90
20750;DHT22;10535;50.664;4.564;2023-07-13T16:43:46;23.60;99.90
20750;DHT22;10535;50.664;4.564;2023-07-13T16:46:14;23.90;99.90
20750;DHT22;10535;50.664;4.564;2023-07-13T16:48:43;23.60;99.90
20750;DHT22;10535;50.664;4.564;2023-07-13T16:51:34;23.50;99.90
20750;DHT22;10535;50.664;4.564;2023-07-13T16:54:40;23.50;99.90
20750;DHT22;10535;50.664;4.564;2023-07-13T16:57:14;23.90;99.90
20750;DHT22;10535;50.664;4.564;2023-07-13T17:00:28;24.10;99.90
20750;DHT22;10535;50.664;4.564;2023-07-13T17:03:34;24.60;99.90
20750;DHT22;10535;50.664;4.564;2023-07-13T17:06:21;24.70;99.90
20750;DHT22;10535;50.664;4.564;2023-07-13T17:08:58;24.90;99.90
20750;DHT22;10535;50.664;4.564;2023-07-13T17:12:13;25.00;99.90
20750;DHT22;10535;50.664;4.564;2023-07-13T17:15:22;24.60;99.90
20750;DHT22;10535;50.664;4.564;2023-07-13T17:18:29;24.60;99.90
20750;DHT22;10535;50.664;4.564;2023-07-13T17:21:21;24.40;99.90
20750;DHT22;10535;50.664;4.564;2023-07-13T17:23:50;24.40;99.90
20750;DHT22;10535;50.664;4.564;2023-07-13T17:26:19;24.60;99.90
20750;DHT22;10535;50.664;4.564;2023-07-13T17:29:01;24.50;99.90
20750;DHT22;10535;50.664;4.564;2023-07-13T17:31:30;24.30;99.90
20750;DHT22;10535;50.664;4.564;2023-07-13T17:34:03;23.70;99.90
20750;DHT22;10535;50.664;4.564;2023-07-13T17:36:32;23.50;99.90
20750;DHT22;10535;50.664;4.564;2023-07-13T17:38:59;23.70;99.90
20750;DHT22;10535;50.664;4.564;2023-07-13T17:41:25;24.00;99.90
20750;DHT22;10535;50.664;4.564;2023-07-13T17:44:04;24.00;99.90
20750;DHT22;10535;50.664;4.564;2023-07-13T17:47:30;24.20;99.90
20750;DHT22;10535;50.664;4.564;2023-07-13T17:49:57;24.10;99.90
20750;DHT22;10535;50.664;4.564;2023-07-13T17:52:26;24.10;99.90
20750;DHT22;10535;50.664;4.564;2023-07-13T17:54:54;24.00;99.90
20750;DHT22;10535;50.664;4.564;2023-07-13T17:57:19;25.10;99.90
20750;DHT22;10535;50.664;4.564;2023-07-13T17:59:45;26.10;99.90
20750;DHT22;10535;50.664;4.564;2023-07-13T18:02:21;26.00;99.90
20750;DHT22;10535;50.664;4.564;2023-07-13T18:04:47;25.80;99.90
20750;DHT22;10535;50.664;4.564;2023-07-13T18:07:13;25.40;99.90
20750;DHT22;10535;50.664;4.564;2023-07-13T18:09:43;25.00;99.90
20750;DHT22;10535;50.664;4.564;2023-07-13T18:12:11;24.60;99.90
20750;DHT22;10535;50.664;4.564;2023-07-13T18:14:37;24.40;99.90
20750;DHT22;10535;50.664;4.564;2023-07-13T18:17:03;24.10;99.90
20750;DHT22;10535;50.664;4.564;2023-07-13T18:19:35;23.80;99.90
20750;DHT22;10535;50.664;4.564;2023-07-13T18:22:04;23.70;99.90
20750;DHT22;10535;50.664;4.564;2023-07-13T18:24:35;23.70;99.90
20750;DHT22;10535;50.664;4.564;2023-07-13T18:27:01;23.60;99.90
20750;DHT22;10535;50.664;4.564;2023-07-13T18:29:28;23.50;99.90
20750;DHT22;10535;50.664;4.564;2023-07-13T18:31:54;23.50;99.90
20750;DHT22;10535;50.664;4.564;2023-07-13T18:34:22;23.40;99.90
20750;DHT22;10535;50.664;4.564;2023-07-13T18:36:49;23.40;99.90
20750;DHT22;10535;50.664;4.564;2023-07-13T18:39:15;23.50;99.90
20750;DHT22;10535;50.664;4.564;2023-07-13T18:41:42;23.40;99.90
20750;DHT22;10535;50.664;4.564;2023-07-13T18:44:11;23.40;99.90
20750;DHT22;10535;50.664;4.564;2023-07-13T18:46:36;23.40;99.90
20750;DHT22;10535;50.664;4.564;2023-07-13T18:49:07;23.40;99.90
20750;DHT22;10535;50.664;4.564;2023-07-13T18:51:41;23.20;99.90
20750;DHT22;10535;50.664;4.564;2023-07-13T18:54:26;23.10;99.90
20750;DHT22;10535;50.664;4.564;2023-07-13T18:56:52;23.20;99.90
20750;DHT22;10535;50.664;4.564;2023-07-13T18:59:17;23.20;99.90
20750;DHT22;10535;50.664;4.564;2023-07-13T19:01:43;23.10;99.90
20750;DHT22;10535;50.664;4.564;2023-07-13T19:04:29;23.10;99.90
20750;DHT22;10535;50.664;4.564;2023-07-13T19:06:57;23.00;99.90
20750;DHT22;10535;50.664;4.564;2023-07-13T19:09:23;23.00;99.90
20750;DHT22;10535;50.664;4.564;2023-07-13T19:11:51;22.80;99.90
20750;DHT22;10535;50.664;4.564;2023-07-13T19:14:22;22.80;99.90
20750;DHT22;10535;50.664;4.564;2023-07-13T19:16:59;22.80;99.90